createdAt,value
2022-08-21T00:02:24.909Z,18.42
2022-08-21T00:06:24.823Z,18.63
2022-08-21T00:10:22.783Z,18.23
2022-08-21T00:14:19.856Z,14.03
2022-08-21T00:18:19.190Z,12.40
2022-08-21T00:22:16.462Z,16.23
2022-08-21T00:26:13.613Z,24.10
2022-08-21T00:30:17.726Z,21.15
2022-08-21T00:34:20.542Z,18.10
2022-08-21T00:38:17.660Z,50.87
2022-08-21T00:42:18.698Z,36.83
2022-08-21T00:46:15.657Z,18.53
2022-08-21T00:50:21.842Z,14.40
2022-08-21T00:54:25.704Z,88.00
2022-08-21T00:58:25.732Z,16.10
2022-08-21T01:02:23.332Z,12.68
2022-08-21T01:06:20.400Z,29.60
2022-08-21T01:10:24.451Z,11.23
2022-08-21T01:14:22.240Z,17.00
2022-08-21T01:18:21.788Z,11.87
2022-08-21T01:22:20.516Z,11.75
2022-08-21T01:26:24.627Z,11.80
2022-08-21T01:30:33.437Z,11.00
2022-08-21T01:34:30.484Z,13.80
2022-08-21T01:38:28.538Z,10.33
2022-08-21T01:42:26.556Z,20.53
2022-08-21T01:46:23.826Z,29.17
2022-08-21T01:50:22.467Z,12.87
2022-08-21T01:54:19.560Z,11.40
2022-08-21T01:58:16.739Z,12.43
2022-08-21T02:02:13.723Z,11.43
2022-08-21T02:06:18.867Z,13.10
2022-08-21T02:10:26.729Z,9.50
2022-08-21T02:14:32.329Z,14.20
2022-08-21T02:18:30.712Z,15.10
2022-08-21T02:22:27.682Z,19.03
2022-08-21T02:26:24.835Z,9.73
2022-08-21T02:30:31.031Z,15.47
2022-08-21T02:34:29.257Z,13.57
2022-08-21T02:38:32.089Z,19.67
2022-08-21T02:42:29.135Z,45.03
2022-08-21T02:46:26.358Z,96.03
2022-08-21T02:50:29.812Z,23.57
2022-08-21T02:54:26.949Z,18.23
2022-08-21T02:58:29.741Z,14.93
2022-08-21T03:02:27.881Z,12.80
2022-08-21T03:06:25.655Z,9.30
2022-08-21T03:10:23.162Z,10.40
2022-08-21T03:14:20.233Z,11.33
2022-08-21T03:18:19.963Z,9.20
2022-08-21T03:22:17.090Z,37.93
2022-08-21T03:26:14.316Z,53.43
2022-08-21T03:30:13.225Z,8.90
2022-08-21T03:34:10.425Z,14.10
2022-08-21T03:38:07.605Z,60.70
2022-08-21T03:42:06.071Z,8.60
2022-08-21T03:46:05.249Z,12.80
2022-08-21T03:50:05.374Z,9.13
2022-08-21T03:54:05.075Z,11.87
2022-08-21T03:58:16.984Z,10.60
2022-08-21T04:02:20.829Z,14.23
2022-08-21T04:06:19.191Z,13.83
2022-08-21T04:10:16.610Z,23.37
2022-08-21T04:14:15.304Z,11.73
2022-08-21T04:18:12.433Z,13.10
2022-08-21T04:22:09.595Z,11.50
2022-08-21T04:26:07.768Z,16.73
2022-08-21T04:30:10.108Z,13.00
2022-08-21T04:34:07.327Z,19.13
2022-08-21T04:38:04.369Z,17.80
2022-08-21T04:42:01.432Z,40.37
2022-08-21T04:45:58.448Z,32.70
2022-08-21T04:49:55.469Z,61.17
2022-08-21T04:54:00.115Z,33.17
2022-08-21T04:57:58.519Z,26.97
2022-08-21T05:01:57.672Z,30.50
2022-08-21T05:05:55.571Z,33.00
2022-08-21T05:09:53.433Z,41.47
2022-08-21T05:13:54.942Z,57.33
2022-08-21T05:18:01.136Z,30.83
2022-08-21T05:21:59.257Z,52.33
2022-08-21T05:25:57.003Z,36.40
2022-08-21T05:29:54.041Z,49.20
2022-08-21T05:33:52.031Z,50.42
2022-08-21T05:37:49.179Z,46.78
2022-08-21T05:41:46.268Z,52.00
2022-08-21T05:45:44.539Z,26.80
2022-08-21T05:49:41.673Z,21.33
2022-08-21T05:53:40.403Z,26.50
2022-08-21T05:57:37.524Z,54.70
2022-08-21T06:01:34.595Z,24.83
2022-08-21T06:05:36.538Z,23.77
2022-08-21T06:09:34.471Z,29.80
2022-08-21T06:13:34.545Z,52.70
2022-08-21T06:17:31.847Z,31.42
2022-08-21T06:21:29.017Z,46.38
2022-08-21T06:25:26.322Z,33.35
2022-08-21T06:29:24.224Z,32.67
2022-08-21T06:33:21.389Z,19.08
2022-08-21T06:37:18.521Z,23.38
2022-08-21T06:41:16.145Z,31.85
2022-08-21T06:45:13.219Z,28.77
2022-08-21T06:49:13.530Z,29.02
2022-08-21T06:53:21.709Z,33.63
2022-08-21T06:57:18.984Z,28.42
2022-08-21T07:01:16.417Z,27.83
2022-08-21T07:05:18.397Z,31.13
2022-08-21T07:09:16.008Z,30.98
2022-08-21T07:13:13.443Z,28.13
2022-08-21T07:17:10.519Z,31.15
2022-08-21T07:21:09.643Z,29.40
2022-08-21T07:25:07.960Z,33.80
2022-08-21T07:29:05.834Z,30.70
2022-08-21T07:33:02.871Z,31.75
2022-08-21T07:37:00.009Z,35.83
2022-08-21T07:41:17.878Z,33.60
2022-08-21T07:45:16.515Z,35.95
2022-08-21T07:49:13.646Z,30.90
2022-08-21T07:53:10.879Z,28.23
2022-08-21T07:57:07.909Z,23.48
2022-08-21T08:01:07.648Z,32.22
2022-08-21T08:05:08.924Z,27.33
2022-08-21T08:09:05.920Z,33.28
2022-08-21T08:13:03.086Z,30.48
2022-08-21T08:17:00.155Z,28.95
2022-08-21T08:20:57.181Z,25.20
2022-08-21T08:24:55.410Z,33.15
2022-08-21T08:28:52.491Z,33.00
2022-08-21T08:32:50.603Z,25.52
2022-08-21T08:36:47.634Z,30.48
2022-08-21T08:41:20.021Z,32.10
2022-08-21T08:45:24.858Z,36.33
2022-08-21T08:49:44.914Z,33.83
2022-08-21T08:53:58.297Z,33.40
2022-08-21T08:57:56.684Z,28.13
2022-08-21T09:01:53.971Z,31.13
2022-08-21T09:05:56.582Z,28.67
2022-08-21T09:10:19.990Z,23.85
2022-08-21T09:14:54.169Z,25.92
2022-08-21T09:19:24.965Z,23.15
2022-08-21T09:23:47.223Z,22.10
2022-08-21T09:27:44.486Z,20.27
2022-08-21T09:31:41.582Z,21.33
2022-08-21T09:35:54.183Z,23.05
2022-08-21T09:39:51.416Z,23.63
2022-08-21T09:43:54.976Z,23.17
2022-08-21T09:47:52.080Z,20.80
2022-08-21T09:51:55.757Z,20.98
2022-08-21T09:56:24.292Z,17.00
2022-08-21T10:00:33.694Z,23.67
2022-08-21T10:04:37.623Z,23.00
2022-08-21T10:08:37.582Z,17.92
2022-08-21T10:13:04.286Z,22.15
2022-08-21T10:17:42.940Z,17.73
2022-08-21T10:21:58.028Z,21.00
2022-08-21T10:26:53.121Z,17.08
2022-08-21T10:31:13.121Z,20.13
2022-08-21T10:35:33.188Z,20.35
2022-08-21T10:39:43.053Z,15.68
2022-08-21T10:44:02.415Z,18.55
2022-08-21T10:48:09.075Z,17.88
2022-08-21T10:52:56.289Z,17.58
2022-08-21T10:57:06.591Z,15.43
2022-08-21T11:01:24.082Z,15.07
2022-08-21T11:05:36.897Z,12.18
2022-08-21T11:09:34.124Z,14.73
2022-08-21T11:13:59.588Z,15.20
2022-08-21T11:18:34.864Z,14.10
2022-08-21T11:23:09.317Z,11.43
2022-08-21T11:27:38.794Z,11.02
2022-08-21T11:32:18.010Z,9.20
2022-08-21T11:36:27.318Z,7.40
2022-08-21T11:41:09.330Z,7.55
2022-08-21T11:45:37.048Z,8.32
2022-08-21T11:49:45.765Z,9.60
2022-08-21T11:53:56.207Z,8.57
2022-08-21T11:58:26.850Z,8.18
2022-08-21T12:02:32.630Z,7.28
2022-08-21T12:06:42.832Z,6.97
2022-08-21T12:10:48.178Z,6.72
2022-08-21T12:14:50.251Z,6.97
2022-08-21T12:18:47.405Z,6.72
2022-08-21T12:22:55.581Z,6.60
2022-08-21T12:27:00.500Z,6.03
2022-08-21T12:30:58.493Z,6.32
2022-08-21T12:35:03.832Z,5.88
2022-08-21T12:39:14.278Z,5.32
2022-08-21T12:43:36.868Z,5.80
2022-08-21T12:47:58.410Z,5.10
2022-08-21T12:52:21.186Z,5.45
2022-08-21T12:56:24.656Z,6.00
2022-08-21T13:00:27.315Z,4.82
2022-08-21T13:04:37.348Z,4.85
2022-08-21T13:08:45.505Z,4.63
2022-08-21T13:12:45.564Z,5.40
2022-08-21T13:16:42.800Z,4.47
2022-08-21T13:20:43.434Z,4.20
2022-08-21T13:24:43.210Z,4.88
2022-08-21T13:28:41.198Z,4.85
2022-08-21T13:32:49.227Z,4.10
2022-08-21T13:36:48.002Z,4.55
2022-08-21T13:40:51.838Z,4.15
2022-08-21T13:44:49.456Z,4.53
2022-08-21T13:48:46.709Z,4.32
2022-08-21T13:53:25.026Z,4.75
2022-08-21T13:57:31.426Z,4.60
2022-08-21T14:01:37.012Z,5.28
2022-08-21T14:05:39.888Z,4.80
2022-08-21T14:09:44.104Z,4.47
2022-08-21T14:13:56.034Z,4.28
2022-08-21T14:17:53.597Z,4.13
2022-08-21T14:21:51.236Z,4.30
2022-08-21T14:25:48.276Z,4.43
2022-08-21T14:29:45.433Z,4.40
2022-08-21T14:33:42.540Z,4.57
2022-08-21T14:37:43.802Z,4.72
2022-08-21T14:41:41.250Z,5.43
2022-08-21T14:45:41.524Z,4.30
2022-08-21T14:49:38.588Z,5.47
2022-08-21T14:53:35.785Z,8.25
2022-08-21T14:57:33.280Z,4.20
2022-08-21T15:01:30.452Z,3.90
2022-08-21T15:05:32.842Z,3.78
2022-08-21T15:09:30.720Z,4.80
2022-08-21T15:13:29.238Z,4.30
2022-08-21T15:17:26.855Z,3.83
2022-08-21T15:21:23.920Z,3.63
2022-08-21T15:25:21.007Z,4.00
2022-08-21T15:29:22.470Z,3.45
2022-08-21T15:33:20.379Z,3.47
2022-08-21T15:37:17.412Z,3.75
2022-08-21T15:41:15.312Z,3.65
2022-08-21T15:45:14.297Z,3.60
2022-08-21T15:49:12.323Z,3.60
2022-08-21T15:53:09.358Z,3.40
2022-08-21T15:57:06.531Z,3.20
2022-08-21T16:01:03.801Z,3.50
2022-08-21T16:05:01.171Z,3.45
2022-08-21T16:08:59.801Z,6.63
2022-08-21T16:13:05.057Z,3.40
2022-08-21T16:17:02.116Z,3.65
2022-08-21T16:20:59.148Z,3.65
2022-08-21T16:24:56.207Z,3.47
2022-08-21T16:28:58.221Z,3.50
2022-08-21T16:32:56.679Z,3.20
2022-08-21T16:36:53.882Z,4.38
2022-08-21T16:40:52.096Z,3.50
2022-08-21T16:44:49.451Z,3.25
2022-08-21T16:48:48.556Z,4.10
2022-08-21T16:52:45.553Z,4.35
2022-08-21T16:56:47.011Z,3.70
2022-08-21T17:00:45.338Z,3.78
2022-08-21T17:04:42.447Z,3.83
2022-08-21T17:08:39.690Z,3.40
2022-08-21T17:12:36.939Z,4.13
2022-08-21T17:16:34.950Z,3.92
2022-08-21T17:20:32.667Z,4.43
2022-08-21T17:24:32.151Z,6.15
2022-08-21T17:28:36.888Z,3.70
2022-08-21T17:32:34.204Z,4.80
2022-08-21T17:36:31.565Z,3.60
2022-08-21T17:40:30.273Z,3.60
2022-08-21T17:44:27.441Z,6.78
2022-08-21T17:48:25.364Z,5.80
2022-08-21T17:52:24.488Z,6.88
2022-08-21T17:56:22.570Z,4.30
2022-08-21T18:00:21.238Z,6.03
2022-08-21T18:04:18.436Z,3.97
2022-08-21T18:08:16.017Z,9.27
2022-08-21T18:12:13.958Z,4.22
2022-08-21T18:16:19.330Z,8.57
2022-08-21T18:20:21.271Z,7.43
2022-08-21T18:24:18.328Z,4.30
2022-08-21T18:28:17.793Z,4.30
2022-08-21T18:32:31.674Z,5.20
2022-08-21T18:36:29.795Z,5.22
2022-08-21T18:40:26.949Z,4.57
2022-08-21T18:44:27.685Z,4.18
2022-08-21T18:48:26.848Z,5.72
2022-08-21T18:52:28.573Z,6.15
2022-08-21T18:56:28.384Z,5.60
2022-08-21T19:00:35.822Z,4.70
2022-08-21T19:04:43.929Z,6.38
2022-08-21T19:08:41.603Z,4.90
2022-08-21T19:12:39.877Z,6.32
2022-08-21T19:16:40.053Z,4.95
2022-08-21T19:20:44.747Z,4.78
2022-08-21T19:24:49.871Z,6.85
2022-08-21T19:28:54.010Z,7.60
2022-08-21T19:32:51.242Z,4.63
2022-08-21T19:36:48.719Z,5.03
2022-08-21T19:40:45.773Z,3.92
2022-08-21T19:44:45.401Z,4.10
2022-08-21T19:48:43.022Z,4.47
2022-08-21T19:52:48.308Z,4.22
2022-08-21T19:56:49.645Z,4.03
2022-08-21T20:00:46.971Z,5.50
2022-08-21T20:09:02.565Z,7.15
2022-08-21T20:13:04.766Z,6.32
2022-08-21T20:17:14.853Z,5.93
2022-08-21T20:21:13.470Z,7.38
2022-08-21T20:25:12.004Z,9.00
2022-08-21T20:29:10.923Z,7.05
2022-08-21T20:33:08.347Z,5.35
2022-08-21T20:37:05.864Z,8.48
2022-08-21T20:41:03.799Z,7.93
2022-08-21T20:45:08.351Z,6.95
2022-08-21T20:49:08.368Z,6.30
2022-08-21T20:53:16.355Z,10.68
2022-08-21T20:57:15.509Z,6.82
2022-08-21T21:01:12.920Z,8.63
2022-08-21T21:05:42.618Z,6.78
2022-08-21T21:09:47.719Z,9.65
2022-08-21T21:14:10.516Z,7.68
2022-08-21T21:18:22.604Z,8.05
2022-08-21T21:22:57.677Z,8.43
2022-08-21T21:27:02.478Z,9.35
2022-08-21T21:31:12.702Z,7.95
2022-08-21T21:35:16.263Z,8.73
2022-08-21T21:40:12.330Z,9.23
2022-08-21T21:44:55.782Z,6.90
2022-08-21T21:49:36.313Z,6.90
2022-08-21T21:54:11.360Z,7.60
2022-08-21T21:58:37.357Z,6.88
2022-08-21T22:02:57.138Z,8.73
2022-08-21T22:07:13.073Z,7.78
2022-08-21T22:11:40.694Z,6.97
2022-08-21T22:15:38.537Z,7.03
2022-08-21T22:19:43.171Z,6.78
2022-08-21T22:23:52.727Z,6.68
2022-08-21T22:28:00.599Z,6.63
2022-08-21T22:32:10.619Z,9.90
2022-08-21T22:36:20.633Z,6.72
2022-08-21T22:40:36.276Z,8.25
2022-08-21T22:44:33.487Z,6.70
2022-08-21T22:48:36.565Z,8.00
2022-08-21T22:52:37.492Z,7.70
2022-08-21T22:56:46.202Z,7.05
2022-08-21T23:01:00.691Z,6.57
2022-08-21T23:05:10.325Z,8.75
2022-08-21T23:09:28.471Z,6.85
2022-08-21T23:13:37.768Z,7.88
2022-08-21T23:18:21.474Z,8.88
2022-08-21T23:22:36.461Z,7.17
2022-08-21T23:26:59.575Z,7.05
2022-08-21T23:31:50.934Z,9.53
2022-08-21T23:36:25.638Z,8.23
2022-08-21T23:40:31.569Z,10.10
2022-08-21T23:45:13.509Z,6.97
2022-08-21T23:49:44.112Z,7.27
2022-08-21T23:54:09.769Z,6.47
2022-08-21T23:58:21.922Z,6.97
